Time;durP1;ratioP1;P1;durP2;ratioP2;P2;SDS_P1;SDS_P2;PMS_P1;PMS_P2;Temp;Humidity;BMP_temperature;BMP_pressure;BME280_temperature;BME280_humidity;BME280_pressure;Samples;Min_cycle;Max_cycle;Signal;HPM_P1;HPM_P2
2023/02/12 00:02:28;;;;;;;;;;;;;;;;;;4970129;28;19913;-73
2023/02/12 00:04:54;;;;;;;;;;;;;;;;;;4964023;28;20370;-75
2023/02/12 00:07:21;;;;;;;;;;;;;;;;;;4947206;28;19995;-75
2023/02/12 00:09:47;;;;;;;;;;;;;;;;;;4962371;28;19964;-75
2023/02/12 00:12:16;;;;;;;;;;;;;;;;;;4984331;28;19925;-75
2023/02/12 00:14:42;;;;;;;;;;;;;;;;;;4981662;28;19923;-76
2023/02/12 00:17:18;;;;;;;;;;;;;;;;;;4984821;28;20297;-75
2023/02/12 00:19:44;;;;;;;;;;;;;;;;;;4971039;28;19929;-75
2023/02/12 00:22:14;;;;;;;;;;;;;;;;;;4974437;28;19918;-76
2023/02/12 00:24:40;;;;;;;;;;;;;;;;;;4981241;28;19929;-76
2023/02/12 00:27:09;;;;;;;;;;;;;;;;;;4967591;28;20012;-76
2023/02/12 00:29:35;;;;;;;;;;;;;;;;;;4978905;28;19918;-74
2023/02/12 00:32:04;;;;;;;;;;;;;;;;;;4972845;28;21929;-73
2023/02/12 00:34:30;;;;;;;;;;;;;;;;;;4984902;28;20000;-78
2023/02/12 00:37:00;;;;;;;;;;;;;;;;;;4992723;28;19985;-75
2023/02/12 00:39:26;;;;;;;;;;;;;;;;;;4976566;28;19917;-77
2023/02/12 00:41:55;;;;;;;;;;;;;;;;;;4975748;28;20437;-74
2023/02/12 00:44:24;;;;;;;;;;;;;;;;;;4955652;28;20017;-76
2023/02/12 00:46:51;;;;;;;;;;;;;;;;;;4930015;28;19955;-78
2023/02/12 00:49:20;;;;;;;;;;;;;;;;;;4959834;28;19918;-79
2023/02/12 00:51:46;;;;;;;;;;;;;;;;;;4926330;28;19925;-79
2023/02/12 00:54:15;;;;;;;;;;;;;;;;;;4962049;28;20018;-76
2023/02/12 00:56:41;;;;;;;;;;;;;;;;;;4968965;28;19988;-75
2023/02/12 00:59:08;;;;;;;;;;;;;;;;;;4990163;28;19914;-76
2023/02/12 01:01:34;;;;;;;;;;;;;;;;;;4948697;28;20679;-76
2023/02/12 01:04:01;;;;;;;;;;;;;;;;;;4972111;28;19925;-76
2023/02/12 01:06:27;;;;;;;;;;;;;;;;;;4970495;28;19937;-76
2023/02/12 01:08:56;;;;;;;;;;;;;;;;;;4951222;28;19913;-76
2023/02/12 01:11:22;;;;;;;;;;;;;;;;;;4959515;28;19913;-76
2023/02/12 01:13:48;;;;;;;;;;;;;;;;;;4969645;28;20441;-75
2023/02/12 01:16:15;;;;;;;;;;;;;;;;;;4976026;28;19972;-75
2023/02/12 01:18:41;;;;;;;;;;;;;;;;;;4979083;28;19937;-74
2023/02/12 01:21:07;;;;;;;;;;;;;;;;;;4976661;28;19969;-76
2023/02/12 01:23:33;;;;;;;;;;;;;;;;;;4952366;28;19918;-75
2023/02/12 01:26:00;;;;;;;;;;;;;;;;;;4969193;28;20413;-77
2023/02/12 01:28:26;;;;;;;;;;;;;;;;;;4969124;28;19917;-73
2023/02/12 01:31:03;;;;;;;;;;;;;;;;;;4980237;28;19941;-74
2023/02/12 01:33:41;;;;;;;;;;;;;;;;;;4963582;28;19954;-76
2023/02/12 01:36:10;;;;;;;;;;;;;;;;;;4987495;28;19940;-76
2023/02/12 01:38:42;;;;;;;;;;;;;;;;;;4980440;28;19914;-75
2023/02/12 01:41:08;;;;;;;;;;;;;;;;;;4970386;28;19922;-76
2023/02/12 01:43:38;;;;;;;;;;;;;;;;;;4975135;28;19918;-79
2023/02/12 01:46:04;;;;;;;;;;;;;;;;;;4969674;28;19945;-76
2023/02/12 01:48:31;;;;;;;;;;;;;;;;;;4963299;28;19918;-77
2023/02/12 01:50:57;;;;;;;;;;;;;;;;;;4978741;28;19970;-75
2023/02/12 01:53:26;;;;;;;;;;;;;;;;;;4940052;28;19918;-74
2023/02/12 01:55:52;;;;;;;;;;;;;;;;;;4953102;28;20394;-77
2023/02/12 01:58:19;;;;;;;;;;;;;;;;;;4972127;28;20472;-75
2023/02/12 02:00:45;;;;;;;;;;;;;;;;;;4983096;28;20059;-76
2023/02/12 02:03:11;;;;;;;;;;;;;;;;;;4983709;28;20025;-75
2023/02/12 02:05:38;;;;;;;;;;;;;;;;;;4953398;28;19977;-76
2023/02/12 02:08:04;;;;;;;;;;;;;;;;;;4958553;28;19973;-75
2023/02/12 02:10:30;;;;;;;;;;;;;;;;;;4967299;28;19975;-76
2023/02/12 02:15:42;;;;;;;;;;;;;;;;;;4966369;28;19921;-76
2023/02/12 02:18:08;;;;;;;;;;;;;;;;;;4942421;28;19938;-76
2023/02/12 02:20:34;;;;;;;;;;;;;;;;;;4941523;28;19930;-74
2023/02/12 02:23:00;;;;;;;;;;;;;;;;;;4949273;28;20269;-74
2023/02/12 02:25:27;;;;;;;;;;;;;;;;;;4946321;28;19919;-75
2023/02/12 02:27:53;;;;;;;;;;;;;;;;;;4955100;28;19997;-74
2023/02/12 02:30:19;;;;;;;;;;;;;;;;;;4950093;28;19970;-74
2023/02/12 02:32:45;;;;;;;;;;;;;;;;;;4961469;28;20366;-75
2023/02/12 02:35:11;;;;;;;;;;;;;;;;;;4962807;28;19918;-75
2023/02/12 02:37:38;;;;;;;;;;;;;;;;;;4942464;28;19918;-76
2023/02/12 02:40:04;;;;;;;;;;;;;;;;;;4947138;28;20034;-75
2023/02/12 02:42:30;;;;;;;;;;;;;;;;;;4949941;28;19979;-76
2023/02/12 02:44:56;;;;;;;;;;;;;;;;;;4983208;28;19918;-74
2023/02/12 02:47:23;;;;;;;;;;;;;;;;;;4982086;28;19922;-74
2023/02/12 02:49:49;;;;;;;;;;;;;;;;;;4976277;28;19965;-74
2023/02/12 02:52:15;;;;;;;;;;;;;;;;;;4964326;28;19926;-74
2023/02/12 02:54:41;;;;;;;;;;;;;;;;;;4942590;28;19924;-74
2023/02/12 02:57:07;;;;;;;;;;;;;;;;;;4945921;28;19950;-74
2023/02/12 02:59:34;;;;;;;;;;;;;;;;;;4951362;28;19922;-75
2023/02/12 03:02:00;;;;;;;;;;;;;;;;;;4956240;28;20429;-75
2023/02/12 03:04:26;;;;;;;;;;;;;;;;;;4938437;28;19915;-75
2023/02/12 03:06:52;;;;;;;;;;;;;;;;;;4955214;28;19926;-75
2023/02/12 03:09:19;;;;;;;;;;;;;;;;;;4965248;28;20425;-74
2023/02/12 03:11:45;;;;;;;;;;;;;;;;;;4941682;28;19925;-74
2023/02/12 03:14:11;;;;;;;;;;;;;;;;;;4945262;28;19918;-74
2023/02/12 03:16:38;;;;;;;;;;;;;;;;;;4946085;28;19919;-75
2023/02/12 03:19:04;;;;;;;;;;;;;;;;;;4966239;28;20428;-75
2023/02/12 03:21:30;;;;;;;;;;;;;;;;;;4970101;28;19918;-75
2023/02/12 03:23:56;;;;;;;;;;;;;;;;;;4976610;28;19968;-74
2023/02/12 03:26:22;;;;;;;;;;;;;;;;;;4968183;28;20521;-74
2023/02/12 03:28:49;;;;;;;;;;;;;;;;;;4973834;28;19917;-75
2023/02/12 03:31:15;;;;;;;;;;;;;;;;;;4976157;28;19921;-75
2023/02/12 03:33:41;;;;;;;;;;;;;;;;;;4975897;28;20046;-75
2023/02/12 03:36:07;;;;;;;;;;;;;;;;;;4978138;28;19918;-75
2023/02/12 03:38:33;;;;;;;;;;;;;;;;;;4994196;28;19917;-74
2023/02/12 03:41:00;;;;;;;;;;;;;;;;;;4978270;28;20296;-75
2023/02/12 03:43:26;;;;;;;;;;;;;;;;;;4971815;28;19918;-76
2023/02/12 03:45:52;;;;;;;;;;;;;;;;;;4970550;28;20311;-76
2023/02/12 03:48:19;;;;;;;;;;;;;;;;;;4973236;28;20408;-76
2023/02/12 03:50:45;;;;;;;;;;;;;;;;;;4989518;28;19956;-76
2023/02/12 03:53:11;;;;;;;;;;;;;;;;;;4973532;28;19984;-76
2023/02/12 03:55:37;;;;;;;;;;;;;;;;;;4983788;28;19949;-76
2023/02/12 03:58:03;;;;;;;;;;;;;;;;;;4978274;28;19917;-77
2023/02/12 04:00:30;;;;;;;;;;;;;;;;;;4983716;28;20670;-75
2023/02/12 04:02:56;;;;;;;;;;;;;;;;;;4970200;28;19921;-76
2023/02/12 04:05:22;;;;;;;;;;;;;;;;;;4986803;28;20377;-75
2023/02/12 04:07:48;;;;;;;;;;;;;;;;;;4994607;28;19934;-76
2023/02/12 04:10:15;;;;;;;;;;;;;;;;;;4975411;28;19913;-78
2023/02/12 04:12:41;;;;;;;;;;;;;;;;;;4967028;28;20307;-75
2023/02/12 04:15:07;;;;;;;;;;;;;;;;;;4963518;28;20285;-76
2023/02/12 04:17:35;;;;;;;;;;;;;;;;;;4970571;28;19922;-75
2023/02/12 04:20:01;;;;;;;;;;;;;;;;;;4969929;28;20382;-76
2023/02/12 04:22:27;;;;;;;;;;;;;;;;;;4968670;28;19918;-75
2023/02/12 04:24:53;;;;;;;;;;;;;;;;;;4953442;28;19973;-75
2023/02/12 04:27:20;;;;;;;;;;;;;;;;;;4970448;28;19932;-75
2023/02/12 04:29:47;;;;;;;;;;;;;;;;;;4958833;28;19927;-75
2023/02/12 04:32:13;;;;;;;;;;;;;;;;;;4964216;28;19917;-75
2023/02/12 04:34:39;;;;;;;;;;;;;;;;;;4970583;28;19918;-74
2023/02/12 04:37:05;;;;;;;;;;;;;;;;;;4984770;28;19931;-74
2023/02/12 04:39:31;;;;;;;;;;;;;;;;;;4977570;28;20536;-75
2023/02/12 04:41:58;;;;;;;;;;;;;;;;;;4966756;28;19917;-74
2023/02/12 04:44:24;;;;;;;;;;;;;;;;;;4985050;28;19980;-75
2023/02/12 04:46:50;;;;;;;;;;;;;;;;;;4992421;28;19933;-75
2023/02/12 04:49:16;;;;;;;;;;;;;;;;;;4970012;28;19960;-74
2023/02/12 04:51:43;;;;;;;;;;;;;;;;;;4975685;28;19924;-74
2023/02/12 04:54:09;;;;;;;;;;;;;;;;;;4974580;28;19917;-74
2023/02/12 04:56:35;;;;;;;;;;;;;;;;;;4971384;28;19921;-75
2023/02/12 04:59:01;;;;;;;;;;;;;;;;;;4981390;28;19977;-74
2023/02/12 05:01:27;;;;;;;;;;;;;;;;;;4985874;28;19917;-75
2023/02/12 05:03:54;;;;;;;;;;;;;;;;;;4966997;28;19992;-75
2023/02/12 05:06:20;;;;;;;;;;;;;;;;;;4986990;28;19918;-75
2023/02/12 05:08:46;;;;;;;;;;;;;;;;;;4970984;28;19918;-75
2023/02/12 05:11:12;;;;;;;;;;;;;;;;;;4967957;28;19939;-75
2023/02/12 05:13:40;;;;;;;;;;;;;;;;;;4978839;28;19922;-75
2023/02/12 05:16:06;;;;;;;;;;;;;;;;;;4978391;28;19914;-76
2023/02/12 05:18:33;;;;;;;;;;;;;;;;;;4971468;28;19934;-76
2023/02/12 05:20:59;;;;;;;;;;;;;;;;;;4953687;28;19968;-75
2023/02/12 05:23:25;;;;;;;;;;;;;;;;;;4953117;28;20381;-75
2023/02/12 05:25:52;;;;;;;;;;;;;;;;;;4966769;28;19941;-75
2023/02/12 05:28:18;;;;;;;;;;;;;;;;;;4961282;28;19988;-75
2023/02/12 05:30:44;;;;;;;;;;;;;;;;;;4979820;28;19922;-75
2023/02/12 05:33:10;;;;;;;;;;;;;;;;;;4980218;28;20149;-76
2023/02/12 05:35:36;;;;;;;;;;;;;;;;;;4951102;28;20460;-75
2023/02/12 05:38:03;;;;;;;;;;;;;;;;;;4954111;28;20005;-75
2023/02/12 05:40:29;;;;;;;;;;;;;;;;;;4950670;28;19973;-75
2023/02/12 05:42:55;;;;;;;;;;;;;;;;;;4947074;28;20302;-74
2023/02/12 05:45:26;;;;;;;;;;;;;;;;;;4946587;28;20005;-76
2023/02/12 05:47:52;;;;;;;;;;;;;;;;;;4947228;28;20421;-75
2023/02/12 05:50:19;;;;;;;;;;;;;;;;;;4941764;28;20462;-76
2023/02/12 05:52:45;;;;;;;;;;;;;;;;;;4955610;28;19922;-76
2023/02/12 05:55:11;;;;;;;;;;;;;;;;;;4973488;28;19918;-76
2023/02/12 05:57:37;;;;;;;;;;;;;;;;;;4949912;28;19938;-76
2023/02/12 06:00:04;;;;;;;;;;;;;;;;;;4953982;28;19921;-76
2023/02/12 06:02:30;;;;;;;;;;;;;;;;;;4941437;28;19938;-76
2023/02/12 06:04:56;;;;;;;;;;;;;;;;;;4958476;28;19925;-76
2023/02/12 06:07:22;;;;;;;;;;;;;;;;;;4959440;28;19930;-76
2023/02/12 06:09:49;;;;;;;;;;;;;;;;;;4953833;28;19930;-76
2023/02/12 06:12:15;;;;;;;;;;;;;;;;;;4945574;28;19926;-75
2023/02/12 06:14:42;;;;;;;;;;;;;;;;;;4939590;28;19937;-75
2023/02/12 06:17:08;;;;;;;;;;;;;;;;;;4952811;28;19922;-74
2023/02/12 06:19:34;;;;;;;;;;;;;;;;;;4960298;28;19938;-74
2023/02/12 06:22:00;;;;;;;;;;;;;;;;;;4956037;28;19925;-74
2023/02/12 06:24:26;;;;;;;;;;;;;;;;;;4958669;28;19921;-74
2023/02/12 06:26:53;;;;;;;;;;;;;;;;;;4965161;28;20684;-74
2023/02/12 06:29:19;;;;;;;;;;;;;;;;;;4962902;28;19966;-74
2023/02/12 06:31:45;;;;;;;;;;;;;;;;;;4972720;28;19917;-75
2023/02/12 06:34:11;;;;;;;;;;;;;;;;;;4969058;28;20348;-75
2023/02/12 06:36:38;;;;;;;;;;;;;;;;;;4945748;28;19914;-75
2023/02/12 06:39:04;;;;;;;;;;;;;;;;;;4963699;28;19973;-74
2023/02/12 06:41:30;;;;;;;;;;;;;;;;;;4953509;28;19918;-74
2023/02/12 06:43:56;;;;;;;;;;;;;;;;;;4959509;28;20289;-74
2023/02/12 06:46:23;;;;;;;;;;;;;;;;;;4961313;28;19918;-73
2023/02/12 06:48:49;;;;;;;;;;;;;;;;;;4964380;28;19963;-74
2023/02/12 06:51:15;;;;;;;;;;;;;;;;;;4978501;28;19926;-75
2023/02/12 06:53:41;;;;;;;;;;;;;;;;;;4957424;28;20004;-73
2023/02/12 06:56:10;;;;;;;;;;;;;;;;;;4955399;28;20369;-73
2023/02/12 06:58:36;;;;;;;;;;;;;;;;;;4953370;28;19921;-73
2023/02/12 07:01:03;;;;;;;;;;;;;;;;;;4966866;28;19922;-73
2023/02/12 07:03:29;;;;;;;;;;;;;;;;;;4963868;28;20382;-73
2023/02/12 07:05:55;;;;;;;;;;;;;;;;;;4960599;28;19977;-73
2023/02/12 07:08:21;;;;;;;;;;;;;;;;;;4977316;28;19937;-74
2023/02/12 07:10:48;;;;;;;;;;;;;;;;;;4959953;28;20437;-73
2023/02/12 07:13:14;;;;;;;;;;;;;;;;;;4977503;28;19925;-73
2023/02/12 07:15:40;;;;;;;;;;;;;;;;;;4976938;28;20605;-72
2023/02/12 07:18:06;;;;;;;;;;;;;;;;;;4955195;28;19922;-73
2023/02/12 07:20:33;;;;;;;;;;;;;;;;;;4937910;28;19918;-73
2023/02/12 07:22:59;;;;;;;;;;;;;;;;;;4938436;28;19926;-74
2023/02/12 07:25:25;;;;;;;;;;;;;;;;;;4940110;28;19964;-73
2023/02/12 07:27:51;;;;;;;;;;;;;;;;;;4935422;28;19942;-72
2023/02/12 07:30:18;;;;;;;;;;;;;;;;;;4956956;28;19919;-73
2023/02/12 07:32:44;;;;;;;;;;;;;;;;;;4934033;28;20396;-72
2023/02/12 07:35:11;;;;;;;;;;;;;;;;;;4955332;28;19921;-74
2023/02/12 07:37:37;;;;;;;;;;;;;;;;;;4941042;28;19930;-74
2023/02/12 07:40:03;;;;;;;;;;;;;;;;;;4951072;28;19970;-72
2023/02/12 07:42:29;;;;;;;;;;;;;;;;;;4938861;28;20355;-73
2023/02/12 07:44:56;;;;;;;;;;;;;;;;;;4946346;28;19914;-73
2023/02/12 07:47:22;;;;;;;;;;;;;;;;;;4935652;28;20290;-75
2023/02/12 07:49:48;;;;;;;;;;;;;;;;;;4931267;28;19918;-72
2023/02/12 07:52:14;;;;;;;;;;;;;;;;;;4947625;28;19926;-72
2023/02/12 07:54:41;;;;;;;;;;;;;;;;;;4941810;28;19960;-72
2023/02/12 07:57:07;;;;;;;;;;;;;;;;;;4964241;28;19922;-72
2023/02/12 07:59:33;;;;;;;;;;;;;;;;;;4951014;28;19930;-72
2023/02/12 08:01:59;;;;;;;;;;;;;;;;;;4964363;28;19925;-72
2023/02/12 08:04:26;;;;;;;;;;;;;;;;;;4961395;28;19940;-72
2023/02/12 08:06:53;;;;;;;;;;;;;;;;;;4948443;28;20362;-71
2023/02/12 08:09:19;;;;;;;;;;;;;;;;;;4942409;28;19930;-74
2023/02/12 08:11:45;;;;;;;;;;;;;;;;;;4943357;28;19919;-76
2023/02/12 08:14:11;;;;;;;;;;;;;;;;;;4947672;28;19954;-75
2023/02/12 08:16:37;;;;;;;;;;;;;;;;;;4934187;29;19958;-75
2023/02/12 08:19:04;;;;;;;;;;;;;;;;;;4961969;28;20350;-74
2023/02/12 08:21:30;;;;;;;;;;;;;;;;;;4935360;28;19928;-75
2023/02/12 08:23:56;;;;;;;;;;;;;;;;;;4945726;28;19925;-75
2023/02/12 08:26:22;;;;;;;;;;;;;;;;;;4940243;28;19953;-77
2023/02/12 08:28:49;;;;;;;;;;;;;;;;;;4941804;28;19930;-73
2023/02/12 08:31:15;;;;;;;;;;;;;;;;;;4965189;28;19919;-74
2023/02/12 08:33:44;;;;;;;;;;;;;;;;;;4942565;28;19931;-75
2023/02/12 08:36:11;;;;;;;;;;;;;;;;;;4960695;28;20366;-75
2023/02/12 08:38:37;;;;;;;;;;;;;;;;;;4948631;28;19995;-74
2023/02/12 08:41:03;;;;;;;;;;;;;;;;;;4941455;28;19918;-75
2023/02/12 08:43:29;;;;;;;;;;;;;;;;;;4965369;28;19938;-74
2023/02/12 08:45:56;;;;;;;;;;;;;;;;;;4965178;28;19922;-73
2023/02/12 08:48:22;;;;;;;;;;;;;;;;;;4946152;28;20406;-75
2023/02/12 08:50:49;;;;;;;;;;;;;;;;;;4950164;28;19922;-74
2023/02/12 08:53:15;;;;;;;;;;;;;;;;;;4963464;28;19929;-74
2023/02/12 08:55:41;;;;;;;;;;;;;;;;;;4968341;28;19973;-73
2023/02/12 08:58:07;;;;;;;;;;;;;;;;;;4964427;28;20362;-74
2023/02/12 09:00:33;;;;;;;;;;;;;;;;;;4949819;28;20012;-74
2023/02/12 09:03:00;;;;;;;;;;;;;;;;;;4966706;28;19926;-74
2023/02/12 09:05:26;;;;;;;;;;;;;;;;;;4966439;28;19922;-74
2023/02/12 09:07:52;;;;;;;;;;;;;;;;;;4950501;28;19934;-75
2023/02/12 09:10:18;;;;;;;;;;;;;;;;;;4957503;28;19984;-74
2023/02/12 09:12:45;;;;;;;;;;;;;;;;;;4955497;28;20012;-74
2023/02/12 09:15:11;;;;;;;;;;;;;;;;;;4965473;28;19917;-74
2023/02/12 09:17:39;;;;;;;;;;;;;;;;;;4972804;28;19969;-75
2023/02/12 09:20:06;;;;;;;;;;;;;;;;;;4999819;28;20003;-74
2023/02/12 09:22:32;;;;;;;;;;;;;;;;;;4993934;28;19922;-74
2023/02/12 09:24:58;;;;;;;;;;;;;;;;;;4981196;28;20549;-75
2023/02/12 09:27:24;;;;;;;;;;;;;;;;;;4992349;28;19929;-74
2023/02/12 09:29:51;;;;;;;;;;;;;;;;;;4992909;28;19922;-74
2023/02/12 09:32:17;;;;;;;;;;;;;;;;;;4984425;28;19918;-74
2023/02/12 09:34:43;;;;;;;;;;;;;;;;;;4978922;28;19932;-74
2023/02/12 09:37:09;;;;;;;;;;;;;;;;;;4966547;28;19921;-75
2023/02/12 09:39:36;;;;;;;;;;;;;;;;;;4993304;28;20634;-73
2023/02/12 09:42:02;;;;;;;;;;;;;;;;;;4997382;28;19921;-74
2023/02/12 09:44:28;;;;;;;;;;;;;;;;;;4988274;28;19922;-75
2023/02/12 09:46:55;;;;;;;;;;;;;;;;;;4975005;28;19922;-74
2023/02/12 09:49:21;;;;;;;;;;;;;;;;;;4979474;28;19929;-74
2023/02/12 09:51:47;;;;;;;;;;;;;;;;;;4980375;28;19989;-75
2023/02/12 09:54:13;;;;;;;;;;;;;;;;;;4997940;28;19921;-74
2023/02/12 09:56:40;;;;;;;;;;;;;;;;;;4994859;28;19918;-75
2023/02/12 09:59:06;;;;;;;;;;;;;;;;;;4998028;28;19980;-75
2023/02/12 10:01:32;;;;;;;;;;;;;;;;;;4998527;28;20358;-75
2023/02/12 10:03:58;;;;;;;;;;;;;;;;;;4993183;28;20369;-75
2023/02/12 10:06:25;;;;;;;;;;;;;;;;;;4994010;28;19924;-74
2023/02/12 10:08:51;;;;;;;;;;;;;;;;;;4992401;28;19930;-73
2023/02/12 10:11:17;;;;;;;;;;;;;;;;;;4989767;28;19922;-74
2023/02/12 10:13:44;;;;;;;;;;;;;;;;;;4998737;28;19932;-76
2023/02/12 10:16:10;;;;;;;;;;;;;;;;;;4994962;28;19996;-74
2023/02/12 10:18:36;;;;;;;;;;;;;;;;;;4988469;28;19936;-74
2023/02/12 10:21:03;;;;;;;;;;;;;;;;;;4970196;28;19921;-75
2023/02/12 10:23:29;;;;;;;;;;;;;;;;;;4981521;28;19918;-75
2023/02/12 10:25:55;;;;;;;;;;;;;;;;;;4976816;28;20450;-75
2023/02/12 10:28:21;;;;;;;;;;;;;;;;;;4963799;28;19997;-75
2023/02/12 10:30:48;;;;;;;;;;;;;;;;;;4976254;28;19925;-74
2023/02/12 10:33:14;;;;;;;;;;;;;;;;;;4960213;28;19918;-74
2023/02/12 10:35:41;;;;;;;;;;;;;;;;;;4947581;28;19936;-75
2023/02/12 10:38:07;;;;;;;;;;;;;;;;;;4963463;28;19913;-75
2023/02/12 10:40:34;;;;;;;;;;;;;;;;;;4960531;28;19981;-75
2023/02/12 10:43:00;;;;;;;;;;;;;;;;;;4956423;28;19917;-75
2023/02/12 10:45:26;;;;;;;;;;;;;;;;;;4945519;28;20642;-76
2023/02/12 10:47:52;;;;;;;;;;;;;;;;;;4959742;28;19934;-74
2023/02/12 10:50:19;;;;;;;;;;;;;;;;;;4944508;28;20008;-78
2023/02/12 10:52:45;;;;;;;;;;;;;;;;;;4943298;28;19925;-75
2023/02/12 10:55:11;;;;;;;;;;;;;;;;;;4957465;28;19938;-76
2023/02/12 10:57:37;;;;;;;;;;;;;;;;;;4940548;28;19926;-76
2023/02/12 11:00:04;;;;;;;;;;;;;;;;;;4935882;28;19922;-75
2023/02/12 11:02:30;;;;;;;;;;;;;;;;;;4946857;28;19918;-74
2023/02/12 11:04:57;;;;;;;;;;;;;;;;;;4967181;28;20419;-75
2023/02/12 11:07:23;;;;;;;;;;;;;;;;;;4948444;28;19930;-74
2023/02/12 11:09:49;;;;;;;;;;;;;;;;;;4972512;28;20018;-74
2023/02/12 11:12:15;;;;;;;;;;;;;;;;;;4943114;28;19923;-74
2023/02/12 11:14:42;;;;;;;;;;;;;;;;;;4925219;28;19925;-74
2023/02/12 11:17:08;;;;;;;;;;;;;;;;;;4948002;28;19918;-75
2023/02/12 11:19:34;;;;;;;;;;;;;;;;;;4958575;28;19930;-74
2023/02/12 11:22:01;;;;;;;;;;;;;;;;;;4973402;28;19915;-75
2023/02/12 11:24:27;;;;;;;;;;;;;;;;;;4952327;28;19958;-74
2023/02/12 11:26:53;;;;;;;;;;;;;;;;;;4967085;28;19953;-74
2023/02/12 11:29:19;;;;;;;;;;;;;;;;;;4966602;28;19930;-75
2023/02/12 11:31:46;;;;;;;;;;;;;;;;;;4952696;28;19970;-74
2023/02/12 11:34:12;;;;;;;;;;;;;;;;;;4952858;28;19976;-73
2023/02/12 11:36:38;;;;;;;;;;;;;;;;;;4950985;28;20030;-74
2023/02/12 11:39:06;;;;;;;;;;;;;;;;;;4950491;28;19917;-75
2023/02/12 11:41:35;;;;;;;;;;;;;;;;;;4961140;28;19934;-75
2023/02/12 11:44:01;;;;;;;;;;;;;;;;;;4957029;28;19977;-75
2023/02/12 11:46:28;;;;;;;;;;;;;;;;;;4963591;28;19918;-75
2023/02/12 11:48:54;;;;;;;;;;;;;;;;;;4971466;28;19922;-75
2023/02/12 11:51:20;;;;;;;;;;;;;;;;;;4950163;28;19977;-74
2023/02/12 11:53:46;;;;;;;;;;;;;;;;;;4947663;28;19954;-75
2023/02/12 11:56:13;;;;;;;;;;;;;;;;;;4955166;28;19980;-75
2023/02/12 11:58:39;;;;;;;;;;;;;;;;;;4969900;28;20761;-75
2023/02/12 12:01:05;;;;;;;;;;;;;;;;;;4953180;28;19965;-75
2023/02/12 12:03:31;;;;;;;;;;;;;;;;;;4957148;28;19914;-75
2023/02/12 12:05:58;;;;;;;;;;;;;;;;;;4970955;28;19923;-74
2023/02/12 12:08:24;;;;;;;;;;;;;;;;;;4968739;28;19926;-75
2023/02/12 12:10:50;;;;;;;;;;;;;;;;;;4940355;28;19933;-75
2023/02/12 12:13:16;;;;;;;;;;;;;;;;;;4966112;28;20318;-75
2023/02/12 12:21:12;;;;;;;;;;;;;;;;;;4972935;28;19922;-75
2023/02/12 12:23:38;;;;;;;;;;;;;;;;;;4961034;28;20082;-75
2023/02/12 12:26:05;;;;;;;;;;;;;;;;;;4947704;28;19922;-75
2023/02/12 12:28:31;;;;;;;;;;;;;;;;;;4947507;28;20338;-75
2023/02/12 12:30:57;;;;;;;;;;;;;;;;;;4950964;28;19925;-75
2023/02/12 12:33:23;;;;;;;;;;;;;;;;;;4969152;28;19973;-76
2023/02/12 12:35:50;;;;;;;;;;;;;;;;;;4951195;28;20386;-75
2023/02/12 12:38:16;;;;;;;;;;;;;;;;;;4968972;28;19922;-74
2023/02/12 12:40:42;;;;;;;;;;;;;;;;;;4966867;28;19919;-74
2023/02/12 12:43:09;;;;;;;;;;;;;;;;;;4985274;28;19917;-74
2023/02/12 12:45:35;;;;;;;;;;;;;;;;;;4943183;28;19941;-75
2023/02/12 12:48:01;;;;;;;;;;;;;;;;;;4949747;28;19934;-75
2023/02/12 12:50:28;;;;;;;;;;;;;;;;;;4963897;28;19922;-74
2023/02/12 12:52:54;;;;;;;;;;;;;;;;;;4953746;28;19922;-75
2023/02/12 12:55:20;;;;;;;;;;;;;;;;;;4967578;28;20317;-76
2023/02/12 12:57:47;;;;;;;;;;;;;;;;;;4952619;28;20374;-75
2023/02/12 13:00:13;;;;;;;;;;;;;;;;;;4967994;28;19926;-74
2023/02/12 13:02:39;;;;;;;;;;;;;;;;;;4952042;28;19922;-75
2023/02/12 13:05:06;;;;;;;;;;;;;;;;;;4953136;28;19958;-75
2023/02/12 13:07:32;;;;;;;;;;;;;;;;;;4938121;28;19918;-74
2023/02/12 13:09:58;;;;;;;;;;;;;;;;;;4964369;28;19927;-75
2023/02/12 13:12:24;;;;;;;;;;;;;;;;;;4978161;28;19951;-75
2023/02/12 13:14:50;;;;;;;;;;;;;;;;;;4970515;28;20347;-75
2023/02/12 13:17:17;;;;;;;;;;;;;;;;;;4961967;28;19914;-75
2023/02/12 13:19:43;;;;;;;;;;;;;;;;;;4943320;28;19972;-74
2023/02/12 13:22:09;;;;;;;;;;;;;;;;;;4952021;28;20001;-75
2023/02/12 13:24:35;;;;;;;;;;;;;;;;;;4966691;28;19922;-76
2023/02/12 13:27:02;;;;;;;;;;;;;;;;;;4955803;28;19914;-76
2023/02/12 13:29:28;;;;;;;;;;;;;;;;;;4966179;28;19926;-75
2023/02/12 13:31:54;;;;;;;;;;;;;;;;;;4939279;28;19922;-75
2023/02/12 13:34:20;;;;;;;;;;;;;;;;;;4950012;28;19921;-75
2023/02/12 13:36:46;;;;;;;;;;;;;;;;;;4951421;28;19914;-75
2023/02/12 13:39:13;;;;;;;;;;;;;;;;;;4969444;28;20313;-76
2023/02/12 13:41:39;;;;;;;;;;;;;;;;;;4949699;28;19940;-76
2023/02/12 13:44:05;;;;;;;;;;;;;;;;;;4952486;28;19918;-75
2023/02/12 13:46:32;;;;;;;;;;;;;;;;;;4959685;28;20009;-76
2023/02/12 13:48:58;;;;;;;;;;;;;;;;;;4953397;28;19922;-74
2023/02/12 13:51:24;;;;;;;;;;;;;;;;;;4953231;28;19977;-73
2023/02/12 13:53:50;;;;;;;;;;;;;;;;;;4959809;28;19949;-75
2023/02/12 13:56:35;;;;;;;;;;;;;;;;;;4974493;28;20037;-75
2023/02/12 13:59:22;;;;;;;;;;;;;;;;;;4970137;28;20378;-75
2023/02/12 14:02:08;;;;;;;;;;;;;;;;;;4963489;28;19920;-76
2023/02/12 14:04:55;;;;;;;;;;;;;;;;;;4970314;28;20393;-74
2023/02/12 14:07:41;;;;;;;;;;;;;;;;;;4965464;28;19918;-76
2023/02/12 14:10:28;;;;;;;;;;;;;;;;;;4957855;28;19929;-74
2023/02/12 14:13:15;;;;;;;;;;;;;;;;;;4957891;28;19914;-74
2023/02/12 14:16:01;;;;;;;;;;;;;;;;;;4961065;28;19914;-74
2023/02/12 14:18:48;;;;;;;;;;;;;;;;;;4961340;28;19921;-75
2023/02/12 14:21:34;;;;;;;;;;;;;;;;;;4977271;28;19924;-75
2023/02/12 14:24:21;;;;;;;;;;;;;;;;;;4975666;28;19921;-76
2023/02/12 14:27:07;;;;;;;;;;;;;;;;;;4982296;28;19914;-75
2023/02/12 14:29:54;;;;;;;;;;;;;;;;;;4968671;28;19922;-75
2023/02/12 14:32:40;;;;;;;;;;;;;;;;;;4966664;28;19918;-75
2023/02/12 14:35:26;;;;;;;;;;;;;;;;;;4977121;28;19918;-75
2023/02/12 14:38:13;;;;;;;;;;;;;;;;;;4978289;28;19925;-74
2023/02/12 14:40:59;;;;;;;;;;;;;;;;;;4975663;28;19925;-74
2023/02/12 14:44:01;;;;;;;;;;;;;;;;;;4974666;28;20416;-74
2023/02/12 14:46:48;;;;;;;;;;;;;;;;;;4974203;28;19918;-74
2023/02/12 14:49:34;;;;;;;;;;;;;;;;;;4971700;28;19941;-75
2023/02/12 14:52:20;;;;;;;;;;;;;;;;;;4971471;28;19914;-75
2023/02/12 14:55:07;;;;;;;;;;;;;;;;;;4974239;28;19914;-75
2023/02/12 14:57:53;;;;;;;;;;;;;;;;;;4974283;28;19929;-74
2023/02/12 15:00:40;;;;;;;;;;;;;;;;;;4974736;28;20445;-74
2023/02/12 15:03:26;;;;;;;;;;;;;;;;;;4969241;28;19921;-75
2023/02/12 15:06:13;;;;;;;;;;;;;;;;;;4968013;28;19918;-75
2023/02/12 15:08:59;;;;;;;;;;;;;;;;;;4978814;28;19922;-75
2023/02/12 15:11:46;;;;;;;;;;;;;;;;;;4975659;28;20278;-74
2023/02/12 15:14:12;;;;;;;;;;;;;;;;;;4974316;28;19926;-74
2023/02/12 15:16:38;;;;;;;;;;;;;;;;;;4965340;28;19937;-74
2023/02/12 15:19:05;;;;;;;;;;;;;;;;;;4983676;28;19934;-74
2023/02/12 15:21:31;;;;;;;;;;;;;;;;;;4991248;28;19921;-75
2023/02/12 15:23:57;;;;;;;;;;;;;;;;;;4990557;28;20471;-75
2023/02/12 15:26:24;;;;;;;;;;;;;;;;;;4994386;28;19992;-75
2023/02/12 15:28:50;;;;;;;;;;;;;;;;;;4981056;28;20481;-74
2023/02/12 15:31:17;;;;;;;;;;;;;;;;;;4972754;28;19989;-74
2023/02/12 15:33:43;;;;;;;;;;;;;;;;;;4959596;28;19936;-75
2023/02/12 15:36:09;;;;;;;;;;;;;;;;;;4991335;28;19924;-74
2023/02/12 15:38:35;;;;;;;;;;;;;;;;;;4973891;28;20020;-76
2023/02/12 15:41:02;;;;;;;;;;;;;;;;;;4990371;28;19926;-75
2023/02/12 15:43:30;;;;;;;;;;;;;;;;;;4994463;28;19941;-75
2023/02/12 15:45:56;;;;;;;;;;;;;;;;;;4998191;28;19928;-75
2023/02/12 15:48:22;;;;;;;;;;;;;;;;;;4993239;28;20381;-74
2023/02/12 15:50:48;;;;;;;;;;;;;;;;;;4978570;28;19991;-75
2023/02/12 15:53:15;;;;;;;;;;;;;;;;;;4990690;28;19917;-74
2023/02/12 15:55:41;;;;;;;;;;;;;;;;;;4949316;28;19921;-75
2023/02/12 15:58:08;;;;;;;;;;;;;;;;;;4980653;28;20448;-74
2023/02/12 16:00:34;;;;;;;;;;;;;;;;;;4993233;28;19922;-74
2023/02/12 16:03:00;;;;;;;;;;;;;;;;;;4995568;28;19964;-74
2023/02/12 16:05:26;;;;;;;;;;;;;;;;;;4994104;28;20427;-75
2023/02/12 16:07:53;;;;;;;;;;;;;;;;;;5002524;28;20023;-74
2023/02/12 16:10:22;;;;;;;;;;;;;;;;;;4996250;28;20492;-75
2023/02/12 16:12:48;;;;;;;;;;;;;;;;;;5001239;28;20705;-74
2023/02/12 16:15:14;;;;;;;;;;;;;;;;;;4995992;28;19921;-75
2023/02/12 16:17:41;;;;;;;;;;;;;;;;;;4994925;28;19933;-74
2023/02/12 16:20:09;;;;;;;;;;;;;;;;;;4975016;28;19986;-73
2023/02/12 16:22:35;;;;;;;;;;;;;;;;;;4958715;28;19930;-73
2023/02/12 16:25:01;;;;;;;;;;;;;;;;;;4952417;28;19926;-73
2023/02/12 16:27:27;;;;;;;;;;;;;;;;;;4973927;28;19918;-75
2023/02/12 16:29:54;;;;;;;;;;;;;;;;;;4963629;28;19922;-75
2023/02/12 16:32:20;;;;;;;;;;;;;;;;;;4964074;28;19922;-74
2023/02/12 16:34:46;;;;;;;;;;;;;;;;;;4956664;28;19926;-74
2023/02/12 16:37:13;;;;;;;;;;;;;;;;;;4958669;28;20017;-75
2023/02/12 16:39:39;;;;;;;;;;;;;;;;;;4958296;28;20387;-75
2023/02/12 16:42:05;;;;;;;;;;;;;;;;;;4957678;28;19918;-75
2023/02/12 16:44:31;;;;;;;;;;;;;;;;;;4940299;28;19965;-76
2023/02/12 16:46:58;;;;;;;;;;;;;;;;;;4955434;28;19922;-75
2023/02/12 16:49:24;;;;;;;;;;;;;;;;;;4975163;28;19985;-74
2023/02/12 16:51:50;;;;;;;;;;;;;;;;;;4971347;28;19922;-74
2023/02/12 16:54:16;;;;;;;;;;;;;;;;;;4957850;28;20001;-73
2023/02/12 16:56:43;;;;;;;;;;;;;;;;;;4954396;28;20366;-74
2023/02/12 16:59:09;;;;;;;;;;;;;;;;;;4974643;28;19917;-74